Time;durP1;ratioP1;P1;durP2;ratioP2;P2;SDS_P1;SDS_P2;PMS_P1;PMS_P2;Temp;Humidity;BMP_temperature;BMP_pressure;BME280_temperature;BME280_humidity;BME280_pressure;Samples;Min_cycle;Max_cycle;Signal;HPM_P1;HPM_P2
2021/10/01 00:00:09;;;;;;;0.22;0.22;;;;;;;14.37;100.00;99023.06;5093227;28;20039;-54
2021/10/01 00:03:40;;;;;;;3.30;1.10;;;;;;;14.36;100.00;99015.91;5093572;28;20074;-55
2021/10/01 00:06:43;;;;;;;0.63;0.63;;;;;;;14.30;100.00;99015.19;5093324;28;20491;-56
2021/10/01 00:09:46;;;;;;;0.10;0.10;;;;;;;14.34;100.00;99007.28;5093219;28;20088;-55
2021/10/01 00:12:49;;;;;;;1.42;0.35;;;;;;;14.35;100.00;98997.59;5093253;28;20051;-55
2021/10/01 00:15:52;;;;;;;13.07;1.00;;;;;;;14.38;100.00;99002.13;5093002;28;20404;-55
2021/10/01 00:18:55;;;;;;;0.43;0.40;;;;;;;14.43;100.00;98990.91;5093079;28;20051;-55
2021/10/01 00:21:57;;;;;;;1.27;0.60;;;;;;;14.42;100.00;98980.22;5093033;28;20043;-55
2021/10/01 00:25:00;;;;;;;4.22;0.82;;;;;;;14.42;100.00;98969.03;5093023;28;20043;-55
2021/10/01 00:28:04;;;;;;;0.22;0.20;;;;;;;14.44;100.00;98966.47;5093276;28;20104;-55
2021/10/01 00:31:07;;;;;;;9.90;1.02;;;;;;;14.34;100.00;98965.25;5092973;28;20499;-55
2021/10/01 00:34:09;;;;;;;0.90;0.40;;;;;;;14.25;100.00;98960.72;5093349;28;20046;-55
2021/10/01 00:37:12;;;;;;;0.10;0.10;;;;;;;14.20;100.00;98950.34;5093028;28;20094;-55
2021/10/01 00:40:15;;;;;;;0.10;0.10;;;;;;;14.25;100.00;98940.38;5093447;28;20107;-56
2021/10/01 00:43:17;;;;;;;4.22;0.63;;;;;;;14.24;100.00;98941.66;5093046;28;20438;-56
2021/10/01 00:46:21;;;;;;;0.10;0.10;;;;;;;14.21;100.00;98937.09;5092418;28;20050;-55
2021/10/01 00:49:24;;;;;;;0.38;0.20;;;;;;;14.36;100.00;98935.44;5092050;28;20059;-56
2021/10/01 00:52:27;;;;;;;0.22;0.15;;;;;;;14.38;100.00;98924.47;5092905;28;20055;-56
2021/10/01 00:55:31;;;;;;;1.60;0.93;;;;;;;14.35;100.00;98925.53;5092770;28;20047;-56
2021/10/01 00:58:34;;;;;;;0.55;0.20;;;;;;;14.27;100.00;98918.94;5092476;28;20118;-56
2021/10/01 01:01:37;;;;;;;0.85;0.20;;;;;;;14.10;100.00;98923.19;5091928;28;20550;-56
2021/10/01 01:04:44;;;;;;;2.58;0.43;;;;;;;14.00;100.00;98922.78;5092629;28;20079;-56
2021/10/01 01:08:02;;;;;;;9.05;0.98;;;;;;;14.01;100.00;98912.34;5092847;28;20121;-57
2021/10/01 01:11:15;;;;;;;4.07;0.52;;;;;;;14.03;100.00;98909.78;5092338;28;20545;-56
2021/10/01 01:14:42;;;;;;;0.10;0.10;;;;;;;14.07;100.00;98915.84;5092660;28;20093;-56
2021/10/01 01:17:53;;;;;;;1.55;1.17;;;;;;;14.02;100.00;98923.00;5092470;28;20405;-56
2021/10/01 01:20:59;;;;;;;0.20;0.20;;;;;;;14.03;100.00;98910.53;5092687;28;20043;-57
2021/10/01 01:24:46;;;;;;;7.22;0.38;;;;;;;14.16;100.00;98912.72;5092975;28;20047;-56
2021/10/01 01:28:08;;;;;;;0.52;0.20;;;;;;;14.40;100.00;98893.16;5092317;28;20086;-56
2021/10/01 01:31:17;;;;;;;0.30;0.28;;;;;;;14.50;100.00;98874.72;5092341;28;20396;-57
2021/10/01 01:34:35;;;;;;;1.58;0.32;;;;;;;14.51;100.00;98876.22;5095316;28;20097;-56
2021/10/01 01:37:46;;;;;;;0.17;0.17;;;;;;;14.55;100.00;98868.28;5095220;28;20039;-57
2021/10/01 01:40:54;;;;;;;2.50;0.57;;;;;;;14.43;100.00;98864.84;5095902;28;20039;-57
2021/10/01 01:44:02;;;;;;;0.63;0.10;;;;;;;14.41;100.00;98858.25;5095745;28;20122;-57
2021/10/01 01:47:06;;;;;;;6.57;0.40;;;;;;;14.40;100.00;98851.88;5095758;28;20131;-57
2021/10/01 01:50:09;;;;;;;1.13;0.17;;;;;;;14.47;100.00;98853.34;5095417;28;20552;-57
2021/10/01 01:53:15;;;;;;;5.38;0.52;;;;;;;14.48;100.00;98842.91;5095626;28;20043;-58
2021/10/01 02:07:50;;;;;;;0.28;0.10;;;;;;;14.52;100.00;98785.28;6295090;22;1317884;-54
2021/10/01 02:10:54;;;;;;;0.20;0.10;;;;;;;14.44;100.00;98767.56;6347558;22;20063;-54
2021/10/01 02:13:59;;;;;;;0.63;0.20;;;;;;;14.47;100.00;98752.47;6347438;22;20071;-56
2021/10/01 02:17:04;;;;;;;1.48;0.32;;;;;;;14.40;100.00;98764.31;6347334;22;20029;-56
2021/10/01 02:20:10;;;;;;;0.00;0.00;;;;;;;14.32;100.00;98752.94;6347791;22;20111;-56
2021/10/01 02:23:13;;;;;;;1.77;0.40;;;;;;;14.29;100.00;98753.97;6347686;22;20048;-56
2021/10/01 02:26:35;;;;;;;0.10;0.00;;;;;;;14.24;100.00;98735.19;6347277;22;20454;-56
2021/10/01 02:29:44;;;;;;;0.30;0.20;;;;;;;14.25;100.00;98719.16;6347434;22;20507;-55
2021/10/01 02:33:11;;;;;;;0.10;0.10;;;;;;;14.25;100.00;98714.28;6347869;22;20071;-55
2021/10/01 02:36:14;;;;;;;0.10;0.10;;;;;;;14.21;100.00;98704.66;6347864;22;20022;-56
2021/10/01 02:39:16;;;;;;;0.10;0.00;;;;;;;14.13;100.00;98690.50;6347586;22;20053;-54
2021/10/01 02:42:21;;;;;;;2.30;0.50;;;;;;;14.01;100.00;98705.91;6347473;22;20025;-56
2021/10/01 02:45:24;;;;;;;0.85;0.20;;;;;;;14.02;100.00;98717.88;6347086;22;20017;-56
2021/10/01 02:48:27;;;;;;;0.10;0.10;;;;;;;13.95;100.00;98729.66;6346944;22;20071;-55
2021/10/01 02:51:34;;;;;;;0.25;0.10;;;;;;;13.93;100.00;98718.22;6346845;22;20025;-56
2021/10/01 02:54:48;;;;;;;0.10;0.08;;;;;;;13.86;100.00;98707.66;6347120;22;20025;-57
2021/10/01 02:57:59;;;;;;;2.75;0.30;;;;;;;13.88;100.00;98699.47;6345859;22;20026;-57
2021/10/01 03:01:05;;;;;;;0.10;0.00;;;;;;;13.89;100.00;98692.59;6346698;22;20119;-57
2021/10/01 03:04:11;;;;;;;0.10;0.00;;;;;;;13.82;100.00;98684.81;6346400;22;20075;-57
2021/10/01 03:07:16;;;;;;;2.55;0.20;;;;;;;13.80;100.00;98690.13;6343827;22;20026;-56
2021/10/01 03:10:22;;;;;;;0.10;0.10;;;;;;;13.73;100.00;98693.53;6339880;22;20071;-57
2021/10/01 03:13:26;;;;;;;0.10;0.00;;;;;;;13.78;100.00;98706.69;6339831;22;20098;-57
2021/10/01 03:16:32;;;;;;;3.30;0.20;;;;;;;13.82;100.00;98709.97;6338861;22;20025;-57
2021/10/01 03:19:36;;;;;;;0.10;0.10;;;;;;;13.87;100.00;98697.94;6339482;22;20033;-56
2021/10/01 03:22:40;;;;;;;0.10;0.10;;;;;;;13.86;100.00;98699.97;6339406;22;20057;-57
2021/10/01 03:25:44;;;;;;;0.10;0.10;;;;;;;13.84;100.00;98685.75;6339505;22;20037;-57
2021/10/01 03:28:47;;;;;;;0.47;0.10;;;;;;;13.86;100.00;98691.59;6339040;22;20053;-57
2021/10/01 03:31:50;;;;;;;0.15;0.10;;;;;;;13.91;100.00;98693.56;6339500;22;20025;-56
2021/10/01 03:34:54;;;;;;;0.30;0.10;;;;;;;13.86;100.00;98699.97;6339561;22;20026;-56
2021/10/01 03:37:59;;;;;;;0.10;0.00;;;;;;;13.83;100.00;98694.69;6339558;22;20053;-57
2021/10/01 03:41:02;;;;;;;0.10;0.10;;;;;;;13.80;100.00;98692.94;6339306;22;20026;-56
2021/10/01 03:44:05;;;;;;;0.20;0.10;;;;;;;13.73;100.00;98687.94;6339545;22;20343;-57
2021/10/01 03:47:08;;;;;;;0.10;0.10;;;;;;;13.86;100.00;98672.00;6339563;22;20064;-57
2021/10/01 03:50:11;;;;;;;0.10;0.10;;;;;;;13.84;100.00;98682.22;6320720;22;20067;-57
2021/10/01 03:53:14;;;;;;;0.30;0.30;;;;;;;13.80;100.00;98684.53;6339183;22;20319;-56
2021/10/01 03:56:17;;;;;;;0.10;0.10;;;;;;;13.73;100.00;98680.28;6339526;22;20387;-56
2021/10/01 03:59:20;;;;;;;0.10;0.10;;;;;;;13.67;100.00;98677.56;6339581;22;20057;-57
2021/10/01 04:02:23;;;;;;;0.10;0.00;;;;;;;13.68;100.00;98686.72;6339758;22;20120;-57
2021/10/01 04:05:26;;;;;;;0.10;0.10;;;;;;;13.56;100.00;98704.88;6338881;22;20453;-57
2021/10/01 04:08:29;;;;;;;0.10;0.00;;;;;;;13.49;100.00;98703.44;6339513;22;20029;-56
2021/10/01 04:11:31;;;;;;;0.17;0.05;;;;;;;13.45;100.00;98707.78;6339191;22;20023;-56
2021/10/01 04:14:35;;;;;;;0.57;0.20;;;;;;;13.42;100.00;98706.81;6339227;22;20030;-57
2021/10/01 04:17:38;;;;;;;0.10;0.10;;;;;;;13.37;100.00;98702.03;6338214;22;20029;-56
2021/10/01 04:20:43;;;;;;;0.10;0.10;;;;;;;13.29;100.00;98687.13;6338936;22;20347;-57
2021/10/01 04:23:46;;;;;;;3.60;0.10;;;;;;;13.29;100.00;98689.16;6339550;22;20036;-57
2021/10/01 04:26:49;;;;;;;0.10;0.00;;;;;;;13.30;100.00;98676.66;6339130;22;20069;-56
2021/10/01 04:29:52;;;;;;;1.50;0.35;;;;;;;13.26;100.00;98668.56;6338830;22;20029;-57
2021/10/01 04:33:01;;;;;;;3.10;0.73;;;;;;;13.24;100.00;98654.34;6339017;22;20323;-57
2021/10/01 04:36:04;;;;;;;1.77;0.10;;;;;;;13.16;100.00;98645.03;6338749;22;20068;-57
2021/10/01 04:39:07;;;;;;;0.10;0.00;;;;;;;13.15;100.00;98639.97;6320292;22;20072;-57
2021/10/01 04:42:10;;;;;;;0.10;0.10;;;;;;;13.14;100.00;98647.59;6338848;22;20026;-57
2021/10/01 04:45:13;;;;;;;1.17;0.20;;;;;;;13.10;100.00;98658.31;6339247;22;20026;-57
2021/10/01 04:48:16;;;;;;;2.50;0.30;;;;;;;13.08;100.00;98666.44;6339047;22;20123;-57
2021/10/01 04:51:18;;;;;;;0.10;0.00;;;;;;;13.07;100.00;98669.75;6339136;22;20148;-56
2021/10/01 04:54:21;;;;;;;1.88;0.17;;;;;;;13.06;100.00;98669.00;6338684;22;20515;-57
2021/10/01 04:57:24;;;;;;;0.10;0.10;;;;;;;13.04;100.00;98662.41;6338574;22;20029;-56
2021/10/01 05:00:27;;;;;;;0.10;0.10;;;;;;;13.03;100.00;98670.03;6339051;22;20071;-56
2021/10/01 05:03:30;;;;;;;0.57;0.25;;;;;;;13.08;100.00;98671.28;6319704;22;20026;-56
2021/10/01 05:06:33;;;;;;;0.50;0.38;;;;;;;13.09;100.00;98664.41;6338284;22;20104;-56
2021/10/01 05:09:35;;;;;;;0.15;0.15;;;;;;;13.02;100.00;98656.56;6338829;22;20402;-56
2021/10/01 05:12:39;;;;;;;1.75;0.20;;;;;;;13.00;100.00;98648.69;6339175;22;20042;-56
2021/10/01 05:15:43;;;;;;;0.10;0.10;;;;;;;12.91;100.00;98658.19;6338769;22;20149;-55
2021/10/01 05:18:46;;;;;;;0.10;0.10;;;;;;;12.91;100.00;98663.75;6338953;22;20101;-56
2021/10/01 05:21:49;;;;;;;0.10;0.10;;;;;;;12.80;100.00;98663.84;6339271;22;20075;-56
2021/10/01 05:24:52;;;;;;;0.20;0.17;;;;;;;12.76;100.00;98673.78;6339266;22;20117;-55
2021/10/01 05:27:54;;;;;;;0.30;0.17;;;;;;;12.79;100.00;98675.56;6339088;22;20025;-56
2021/10/01 05:30:57;;;;;;;1.17;0.35;;;;;;;12.97;100.00;98683.31;6338636;22;20053;-55
2021/10/01 05:34:00;;;;;;;0.30;0.10;;;;;;;12.90;100.00;98692.25;6338667;22;20026;-56
2021/10/01 05:37:04;;;;;;;0.10;0.10;;;;;;;12.89;100.00;98688.69;6338681;22;20335;-55
2021/10/01 05:40:07;;;;;;;0.43;0.15;;;;;;;12.84;100.00;98681.09;6337670;22;20098;-56
2021/10/01 05:43:10;;;;;;;0.20;0.20;;;;;;;12.88;100.00;98680.81;6338262;22;20053;-56
2021/10/01 05:46:14;;;;;;;0.32;0.30;;;;;;;12.87;100.00;98673.69;6338555;22;20021;-55
2021/10/01 05:49:28;;;;;;;0.10;0.10;;;;;;;12.85;100.00;98673.47;6338637;22;20053;-55
2021/10/01 05:55:46;;;;;;;0.47;0.20;;;;;;;12.80;100.00;98694.59;6338070;22;20053;-55
2021/10/01 05:58:49;;;;;;;0.50;0.35;;;;;;;12.79;100.00;98690.28;6338295;22;20068;-56
2021/10/01 06:01:52;;;;;;;0.30;0.20;;;;;;;12.80;100.00;98697.38;6319669;22;20072;-55
2021/10/01 06:04:55;;;;;;;0.10;0.00;;;;;;;12.76;100.00;98701.72;6338972;22;20441;-55
2021/10/01 06:07:58;;;;;;;0.20;0.20;;;;;;;12.74;100.00;98698.69;6338435;22;20026;-55
2021/10/01 06:11:01;;;;;;;0.20;0.10;;;;;;;12.70;100.00;98696.19;6338559;22;20345;-53
2021/10/01 06:14:06;;;;;;;0.28;0.10;;;;;;;12.68;100.00;98689.59;6338500;22;20021;-53
2021/10/01 06:17:12;;;;;;;1.08;0.73;;;;;;;12.65;100.00;98688.59;6337903;22;20022;-53
2021/10/01 06:20:15;;;;;;;1.33;0.30;;;;;;;12.68;100.00;98686.81;6338092;22;20076;-53
2021/10/01 06:23:18;;;;;;;1.17;0.15;;;;;;;12.70;100.00;98695.41;6338229;22;20076;-53
2021/10/01 06:26:22;;;;;;;0.10;0.00;;;;;;;12.76;100.00;98673.78;6338356;22;20018;-53
2021/10/01 06:29:25;;;;;;;0.10;0.10;;;;;;;12.82;100.00;98671.72;6338150;22;20339;-54
2021/10/01 06:32:34;;;;;;;0.52;0.52;;;;;;;12.80;100.00;98682.63;6337908;22;20343;-54
2021/10/01 06:35:38;;;;;;;1.65;0.63;;;;;;;12.81;100.00;98687.72;6338430;22;20076;-54
2021/10/01 06:38:42;;;;;;;0.20;0.10;;;;;;;12.80;100.00;98683.41;6338428;22;20084;-54
2021/10/01 06:41:45;;;;;;;0.20;0.10;;;;;;;12.79;100.00;98690.28;6338206;22;20411;-53
2021/10/01 06:44:50;;;;;;;0.10;0.10;;;;;;;12.80;100.00;98691.78;6339794;22;20393;-53
2021/10/01 06:48:09;;;;;;;0.10;0.10;;;;;;;12.79;100.00;98689.53;6339869;22;20022;-53
2021/10/01 06:51:28;;;;;;;0.10;0.10;;;;;;;12.77;100.00;98675.31;6340438;22;20057;-54
2021/10/01 08:22:05;;;;;;;1.00;0.70;;;;;;;13.52;100.00;98743.59;6247161;22;20022;-56
2021/10/01 08:25:09;;;;;;;1.65;0.90;;;;;;;13.58;100.00;98753.44;6339345;22;20021;-54
2021/10/01 08:28:12;;;;;;;0.95;0.28;;;;;;;13.68;100.00;98762.25;6339097;22;20025;-54
2021/10/01 08:31:16;;;;;;;2.03;0.73;;;;;;;13.82;100.00;98751.97;6339205;22;20025;-54
2021/10/01 08:34:20;;;;;;;1.00;0.40;;;;;;;13.94;100.00;98759.72;6338574;22;20347;-54
2021/10/01 08:37:23;;;;;;;6.13;0.38;;;;;;;13.93;100.00;98771.41;6338891;22;20025;-55
2021/10/01 08:40:26;;;;;;;8.88;0.43;;;;;;;14.02;100.00;98773.88;6338950;22;20537;-56
2021/10/01 08:43:31;;;;;;;0.77;0.30;;;;;;;14.12;100.00;98772.25;6339048;22;20026;-57
2021/10/01 08:46:34;;;;;;;0.98;0.47;;;;;;;14.19;100.00;98766.81;6338202;22;20021;-56
2021/10/01 08:49:40;;;;;;;6.38;0.93;;;;;;;14.25;100.00;98767.50;6339022;22;20079;-55
2021/10/01 08:52:43;;;;;;;0.93;0.17;;;;;;;14.29;100.00;98770.78;6319545;22;20068;-55
2021/10/01 08:55:47;;;;;;;0.38;0.22;;;;;;;14.27;100.00;98767.72;6338845;22;20061;-55
2021/10/01 08:58:51;;;;;;;1.88;0.32;;;;;;;14.23;100.00;98788.91;6338451;22;20021;-55
2021/10/01 09:01:54;;;;;;;5.88;0.57;;;;;;;14.03;100.00;98786.59;6338818;22;20025;-55
2021/10/01 09:04:56;;;;;;;0.82;0.10;;;;;;;14.01;100.00;98786.38;6338385;22;20543;-55
2021/10/01 09:08:14;;;;;;;3.80;0.57;;;;;;;14.05;100.00;98790.38;6338728;22;20025;-55
2021/10/01 09:11:24;;;;;;;2.65;0.52;;;;;;;14.08;100.00;98788.56;6338427;22;20025;-54
2021/10/01 09:14:28;;;;;;;1.02;0.25;;;;;;;14.10;100.00;98777.59;6338787;22;20461;-53
2021/10/01 09:17:33;;;;;;;3.60;0.68;;;;;;;14.11;100.00;98787.50;6337896;22;20064;-52
2021/10/01 09:20:36;;;;;;;4.03;0.60;;;;;;;14.26;100.00;98779.47;6338595;22;20106;-55
2021/10/01 09:23:42;;;;;;;2.38;0.17;;;;;;;14.51;100.00;98780.22;6338211;22;20119;-55
2021/10/01 09:26:57;;;;;;;0.65;0.38;;;;;;;14.67;100.00;98777.19;6319403;22;20022;-56
2021/10/01 09:30:00;;;;;;;2.13;0.20;;;;;;;14.67;100.00;98787.63;6338805;22;20516;-54
2021/10/01 09:33:15;;;;;;;0.50;0.30;;;;;;;14.68;100.00;98783.56;6338639;22;20557;-56
2021/10/01 09:36:18;;;;;;;0.52;0.40;;;;;;;14.67;100.00;98796.03;6337827;22;20343;-54
2021/10/01 09:39:26;;;;;;;1.17;0.40;;;;;;;14.68;100.00;98795.53;6338314;22;20098;-54
2021/10/01 09:42:36;;;;;;;2.05;0.63;;;;;;;14.87;100.00;98798.31;6338702;22;20020;-53
2021/10/01 09:45:40;;;;;;;0.30;0.30;;;;;;;14.90;100.00;98800.81;6338289;22;20076;-53
2021/10/01 09:48:44;;;;;;;0.68;0.30;;;;;;;14.98;100.00;98806.59;6338288;22;20067;-54
2021/10/01 09:51:54;;;;;;;2.92;0.13;;;;;;;14.96;100.00;98803.56;6338550;22;20378;-55
2021/10/01 09:55:05;;;;;;;0.83;0.70;;;;;;;14.90;100.00;98814.84;6338822;22;20053;-54
2021/10/01 09:58:14;;;;;;;1.20;0.50;;;;;;;14.78;100.00;98810.69;6338346;22;20107;-55
2021/10/01 10:01:16;;;;;;;0.10;0.00;;;;;;;14.60;100.00;98817.00;6337940;22;20394;-55
2021/10/01 10:04:19;;;;;;;2.78;0.15;;;;;;;14.44;100.00;98815.19;6338502;22;20102;-54
2021/10/01 10:07:24;;;;;;;2.53;0.40;;;;;;;14.34;100.00;98828.00;6338064;22;20022;-54
2021/10/01 10:10:43;;;;;;;0.47;0.10;;;;;;;14.38;100.00;98834.84;6338375;22;20384;-54
2021/10/01 10:13:49;;;;;;;0.40;0.10;;;;;;;14.65;100.00;98823.84;6338347;22;20057;-55
2021/10/01 10:16:58;;;;;;;0.25;0.22;;;;;;;15.12;100.00;98839.78;6337890;22;20363;-54
2021/10/01 10:20:03;;;;;;;0.88;0.35;;;;;;;15.44;100.00;98853.84;6340439;22;20458;-55
2021/10/01 10:23:06;;;;;;;3.53;0.20;;;;;;;15.38;100.00;98849.59;6340188;22;20025;-54
2021/10/01 10:26:09;;;;;;;1.48;0.38;;;;;;;15.04;100.00;98852.88;6340617;22;20347;-53
2021/10/01 10:29:13;;;;;;;3.10;0.38;;;;;;;14.53;100.00;98868.03;6340250;22;20029;-55
2021/10/01 10:32:16;;;;;;;0.10;0.00;;;;;;;14.14;100.00;98859.28;6340239;22;20029;-55
2021/10/01 10:35:22;;;;;;;0.10;0.10;;;;;;;13.81;100.00;98876.38;6339869;22;20026;-54
2021/10/01 10:38:32;;;;;;;4.93;0.57;;;;;;;13.53;100.00;98880.16;6340306;22;20392;-54
2021/10/01 10:41:43;;;;;;;1.23;0.25;;;;;;;13.39;100.00;98881.25;6339920;22;20025;-54
2021/10/01 10:44:54;;;;;;;0.10;0.00;;;;;;;13.23;100.00;98884.16;6340045;22;20057;-55
2021/10/01 10:48:10;;;;;;;5.82;1.58;;;;;;;13.07;100.00;98888.56;6340068;22;20068;-55
2021/10/01 10:51:13;;;;;;;0.65;0.40;;;;;;;13.04;100.00;98889.53;6340131;22;20102;-54
2021/10/01 10:54:15;;;;;;;0.13;0.13;;;;;;;13.11;100.00;98886.25;6320982;22;20458;-52
2021/10/01 10:57:21;;;;;;;0.20;0.10;;;;;;;13.16;100.00;98893.84;6339898;22;20072;-52
2021/10/01 11:00:30;;;;;;;3.03;0.90;;;;;;;13.30;100.00;98894.75;6339549;22;20033;-52
2021/10/01 11:03:33;;;;;;;5.57;1.15;;;;;;;13.55;100.00;98888.78;6339660;22;20026;-55
2021/10/01 11:06:37;;;;;;;10.52;1.85;;;;;;;13.66;100.00;98894.25;6339599;22;20054;-54
2021/10/01 11:09:40;;;;;;;8.52;1.55;;;;;;;13.80;100.00;98897.22;6320718;22;20096;-54
2021/10/01 11:12:43;;;;;;;1.13;0.43;;;;;;;13.76;100.00;98902.34;6339458;22;20021;-54
2021/10/01 11:16:13;;;;;;;1.52;0.55;;;;;;;13.79;100.00;98901.31;6339517;22;20057;-54
2021/10/01 11:19:16;;;;;;;2.27;0.50;;;;;;;13.80;100.00;98916.81;6339824;22;20033;-54
2021/10/01 11:22:38;;;;;;;2.70;0.40;;;;;;;13.71;100.00;98919.94;6339651;22;20230;-54
2021/10/01 11:25:42;;;;;;;1.92;0.43;;;;;;;13.84;100.00;98920.84;6339297;22;20442;-55
2021/10/01 11:28:45;;;;;;;0.63;0.38;;;;;;;14.05;100.00;98926.81;6339352;22;20025;-54
2021/10/01 11:32:03;;;;;;;4.57;0.40;;;;;;;14.36;100.00;98924.25;6339778;22;20107;-54
2021/10/01 11:35:07;;;;;;;0.47;0.40;;;;;;;14.38;100.00;98923.72;6339452;22;20057;-53
2021/10/01 11:38:21;;;;;;;0.10;0.10;;;;;;;14.44;100.00;98930.03;6339225;22;20025;-54
2021/10/01 11:41:25;;;;;;;0.30;0.17;;;;;;;14.59;100.00;98933.19;6339453;22;20025;-54
2021/10/01 11:44:28;;;;;;;0.65;0.25;;;;;;;14.68;100.00;98932.84;6338745;22;20076;-54
2021/10/01 11:47:32;;;;;;;0.60;0.20;;;;;;;14.81;100.00;98921.72;6338232;22;20022;-54
2021/10/01 11:50:49;;;;;;;1.92;0.50;;;;;;;14.83;100.00;98929.63;6339072;22;20026;-53
2021/10/01 11:54:05;;;;;;;1.42;0.28;;;;;;;14.59;100.00;98938.03;6339805;22;20025;-55
2021/10/01 11:57:09;;;;;;;16.65;1.50;;;;;;;14.37;100.00;98950.22;6339447;22;20116;-54
2021/10/01 12:00:17;;;;;;;0.20;0.20;;;;;;;14.20;100.00;98958.75;6338614;22;20022;-55
2021/10/01 12:03:21;;;;;;;8.55;1.40;;;;;;;14.05;100.00;98957.59;6301548;22;20066;-54
2021/10/01 12:06:26;;;;;;;0.10;0.00;;;;;;;14.21;100.00;98951.84;6297989;22;20057;-54
2021/10/01 12:09:30;;;;;;;0.20;0.10;;;;;;;14.46;100.00;98949.88;6300247;22;20045;-55
2021/10/01 12:12:34;;;;;;;0.10;0.00;;;;;;;14.81;100.00;98955.34;6300528;22;20018;-54
2021/10/01 12:15:45;;;;;;;0.70;0.30;;;;;;;15.05;100.00;98958.16;6299913;22;20100;-57
2021/10/01 12:18:57;;;;;;;0.10;0.10;;;;;;;15.46;100.00;98957.16;6301858;22;20098;-54
2021/10/01 12:22:14;;;;;;;0.80;0.20;;;;;;;15.97;100.00;98953.09;6300829;22;20017;-55
2021/10/01 12:25:25;;;;;;;11.32;0.55;;;;;;;16.29;100.00;98959.44;6302667;22;20144;-54
2021/10/01 12:28:28;;;;;;;0.10;0.10;;;;;;;16.43;100.00;98946.97;6300458;22;21068;-54
2021/10/01 12:31:55;;;;;;;4.03;0.20;;;;;;;16.02;100.00;98963.50;6301094;22;20030;-56
2021/10/01 12:34:59;;;;;;;5.72;0.35;;;;;;;15.46;100.00;98974.00;6301883;22;20067;-53
2021/10/01 12:38:03;;;;;;;5.03;0.20;;;;;;;15.07;100.00;98969.59;6300487;22;20102;-54
2021/10/01 12:41:15;;;;;;;0.30;0.15;;;;;;;14.86;100.00;98971.38;6301865;22;20083;-54
2021/10/01 12:44:18;;;;;;;0.63;0.20;;;;;;;14.57;100.00;98966.59;6310729;22;20068;-56
2021/10/01 12:47:21;;;;;;;1.63;0.32;;;;;;;14.47;100.00;98975.88;6319388;22;20095;-53
2021/10/01 12:50:32;;;;;;;5.32;0.45;;;;;;;14.73;100.00;98974.06;6338996;22;20025;-53
2021/10/01 12:53:35;;;;;;;;;;;;;;;15.21;100.00;98976.06;6339295;22;20045;-53
2021/10/01 12:56:38;;;;;;;0.10;0.10;;;;;;;15.57;100.00;98962.63;6338805;22;20324;-54
2021/10/01 12:59:50;;;;;;;2.28;0.43;;;;;;;15.80;100.00;98972.25;6338848;22;20026;-55
2021/10/01 13:02:52;;;;;;;0.10;0.10;;;;;;;15.94;100.00;98979.41;6338806;22;20359;-53
2021/10/01 13:05:55;;;;;;;0.20;0.20;;;;;;;15.82;100.00;98972.47;6338309;22;20045;-56
2021/10/01 13:09:00;;;;;;;3.95;0.63;;;;;;;15.70;100.00;98979.53;6338856;22;20025;-53
2021/10/01 13:12:03;;;;;;;1.55;0.20;;;;;;;15.46;100.00;98968.38;6339000;22;20026;-55
2021/10/01 13:15:07;;;;;;;0.10;0.10;;;;;;;15.41;100.00;98983.97;6338444;22;20079;-53
2021/10/01 13:18:28;;;;;;;2.47;0.15;;;;;;;15.45;100.00;98984.47;6338518;22;20022;-55
2021/10/01 13:21:30;;;;;;;0.75;0.28;;;;;;;15.74;100.00;98983.53;6338471;22;20026;-53
2021/10/01 13:24:33;;;;;;;0.10;0.08;;;;;;;15.77;100.00;98990.13;6337807;22;20061;-54
2021/10/01 13:27:36;;;;;;;1.27;0.45;;;;;;;15.59;100.00;99000.06;6337397;22;20022;-53
2021/10/01 13:30:39;;;;;;;1.48;0.50;;;;;;;15.31;100.00;99007.31;6337218;22;20072;-54
2021/10/01 13:33:43;;;;;;;7.13;0.35;;;;;;;15.11;100.00;99005.78;6337552;22;20075;-54
2021/10/01 13:36:46;;;;;;;4.85;0.82;;;;;;;15.06;100.00;99007.34;6337549;22;20026;-54
2021/10/01 13:39:49;;;;;;;2.40;0.55;;;;;;;15.13;100.00;99009.56;6337896;22;20088;-50
2021/10/01 13:42:53;;;;;;;0.20;0.20;;;;;;;15.24;100.00;99007.91;6338458;22;20450;-53
2021/10/01 13:45:59;;;;;;;0.85;0.40;;;;;;;15.43;100.00;99014.31;6337654;22;20389;-51
2021/10/01 13:49:02;;;;;;;5.60;0.30;;;;;;;15.90;100.00;99002.19;6318644;22;20064;-51
2021/10/01 13:52:06;;;;;;;1.65;0.28;;;;;;;16.20;100.00;99007.63;6337087;22;20026;-50
2021/10/01 13:55:10;;;;;;;0.17;0.17;;;;;;;16.36;100.00;99014.25;6337507;22;20025;-51
2021/10/01 13:58:14;;;;;;;3.28;0.82;;;;;;;16.59;100.00;99016.19;6337209;22;20450;-50
2021/10/01 14:01:17;;;;;;;0.20;0.10;;;;;;;16.47;100.00;99006.41;6336710;22;20327;-50
2021/10/01 14:04:21;;;;;;;0.10;0.10;;;;;;;16.52;100.00;99007.66;6337330;22;20347;-50
2021/10/01 14:07:24;;;;;;;0.65;0.57;;;;;;;16.56;100.00;99019.34;6337804;22;20423;-50
2021/10/01 14:10:30;;;;;;;0.10;0.10;;;;;;;16.48;100.00;99032.47;6318437;22;20069;-51
2021/10/01 14:13:33;;;;;;;1.00;0.43;;;;;;;16.24;100.00;99024.19;6337950;22;20025;-52
2021/10/01 14:16:37;;;;;;;2.63;0.20;;;;;;;15.82;100.00;99031.41;6336938;22;20026;-45
2021/10/01 14:19:42;;;;;;;0.13;0.13;;;;;;;15.63;100.00;99030.66;6337530;22;20037;-46
2021/10/01 14:22:47;;;;;;;0.10;0.10;;;;;;;15.35;100.00;99030.22;6338030;22;20076;-46
2021/10/01 14:25:50;;;;;;;0.20;0.20;;;;;;;15.12;100.00;99030.47;6337909;22;20021;-46
2021/10/01 14:28:53;;;;;;;0.28;0.28;;;;;;;15.20;100.00;99037.00;6337755;22;20026;-45
2021/10/01 14:31:56;;;;;;;6.50;1.23;;;;;;;15.09;100.00;99033.59;6337398;22;20029;-45
2021/10/01 14:35:00;;;;;;;0.70;0.28;;;;;;;15.07;100.00;99039.69;6337924;22;20022;-44
2021/10/01 14:38:09;;;;;;;7.28;0.52;;;;;;;14.90;100.00;99047.53;6337753;22;20063;-44
2021/10/01 14:41:13;;;;;;;0.85;0.40;;;;;;;14.91;100.00;99046.25;6337967;22;20536;-50
2021/10/01 14:44:15;;;;;;;0.68;0.30;;;;;;;15.00;100.00;99034.69;6337597;22;20147;-49
2021/10/01 14:47:19;;;;;;;2.40;1.00;;;;;;;13.66;100.00;99045.34;6336981;22;20388;-49
2021/10/01 14:50:22;;;;;;;8.18;0.43;;;;;;;13.88;100.00;99040.94;6337754;22;20022;-49
2021/10/01 14:53:26;;;;;;;0.70;0.43;;;;;;;13.42;100.00;99036.84;6337491;22;20481;-49
2021/10/01 14:56:31;;;;;;;14.23;0.77;;;;;;;13.65;100.00;99024.25;6337263;22;20316;-48
2021/10/01 14:59:34;;;;;;;0.88;0.30;;;;;;;14.97;100.00;99027.31;6337973;22;20075;-48
2021/10/01 15:02:38;;;;;;;0.20;0.20;;;;;;;15.64;100.00;99030.13;6338092;22;20064;-49
2021/10/01 15:05:41;;;;;;;0.32;0.32;;;;;;;15.67;100.00;99036.72;6339197;22;20022;-50
2021/10/01 15:08:45;;;;;;;0.32;0.03;;;;;;;15.02;100.00;99031.34;6339902;22;20067;-49
2021/10/01 15:11:48;;;;;;;8.25;0.22;;;;;;;13.73;100.00;99038.44;6339788;22;20359;-47
2021/10/01 15:14:51;;;;;;;0.10;0.10;;;;;;;13.25;100.00;99050.13;6339346;22;20351;-51
2021/10/01 15:17:55;;;;;;;0.52;0.30;;;;;;;13.25;100.00;99043.75;6339156;22;20526;-50
2021/10/01 15:20:58;;;;;;;0.63;0.15;;;;;;;13.18;100.00;99044.28;6339495;22;20072;-51
2021/10/01 15:24:01;;;;;;;0.20;0.20;;;;;;;13.39;100.00;99048.28;6337895;22;20455;-46
2021/10/01 15:27:05;;;;;;;1.58;0.20;;;;;;;13.50;100.00;99051.81;6338159;22;20431;-45
2021/10/01 15:30:13;;;;;;;0.10;0.10;;;;;;;13.18;100.00;99050.66;6338169;22;20072;-46
2021/10/01 15:33:16;;;;;;;0.28;0.28;;;;;;;13.40;100.00;99061.78;6339111;22;20072;-46
2021/10/01 15:36:20;;;;;;;0.80;0.30;;;;;;;13.41;100.00;99057.69;6338115;22;20094;-46
2021/10/01 15:39:23;;;;;;;3.95;0.40;;;;;;;13.35;100.00;99064.56;6337917;22;20067;-46
2021/10/01 15:42:25;;;;;;;6.32;0.50;;;;;;;13.25;100.00;99061.31;6336751;22;20106;-45
2021/10/01 15:45:41;;;;;;;1.45;0.98;;;;;;;12.77;100.00;99058.06;6334192;22;20458;-46
2021/10/01 15:48:44;;;;;;;1.88;0.68;;;;;;;13.20;100.00;99058.50;6337840;22;20026;-46
2021/10/01 15:51:47;;;;;;;5.07;0.98;;;;;;;13.27;100.00;99058.00;6337915;22;20025;-46
2021/10/01 15:54:50;;;;;;;1.25;0.45;;;;;;;13.15;100.00;99057.25;6301286;22;20121;-46
2021/10/01 15:57:53;;;;;;;4.15;1.40;;;;;;;12.93;100.00;99071.25;6301307;22;20021;-46
2021/10/01 16:00:57;;;;;;;0.38;0.15;;;;;;;12.65;100.00;99076.88;6304724;22;20030;-46
2021/10/01 16:03:59;;;;;;;1.83;0.22;;;;;;;12.68;100.00;99072.28;6300688;22;20458;-46